createdAt,value
2023-02-27T00:01:33.933Z,10.87
2023-02-27T00:04:02.240Z,9.70
2023-02-27T00:06:30.286Z,8.80
2023-02-27T00:08:58.132Z,7.40
2023-02-27T00:11:27.588Z,7.20
2023-02-27T00:13:55.458Z,7.90
2023-02-27T00:16:25.001Z,9.70
2023-02-27T00:18:53.044Z,9.03
2023-02-27T00:21:21.498Z,7.57
2023-02-27T00:23:49.573Z,9.70
2023-02-27T00:26:18.360Z,6.57
2023-02-27T00:28:46.405Z,6.50
2023-02-27T00:31:16.896Z,6.97
2023-02-27T00:33:46.282Z,7.00
2023-02-27T00:36:15.971Z,5.47
2023-02-27T00:38:43.915Z,6.77
2023-02-27T00:41:11.646Z,7.43
2023-02-27T00:43:39.641Z,7.83
2023-02-27T00:46:07.560Z,5.83
2023-02-27T00:48:35.216Z,6.13
2023-02-27T00:51:04.973Z,7.77
2023-02-27T00:53:33.291Z,8.00
2023-02-27T00:56:00.957Z,5.97
2023-02-27T00:58:29.764Z,9.80
2023-02-27T01:01:00.136Z,8.30
2023-02-27T01:03:30.927Z,7.93
2023-02-27T01:05:59.117Z,9.17
2023-02-27T01:08:28.313Z,7.30
2023-02-27T01:10:56.522Z,6.60
2023-02-27T01:13:25.115Z,6.13
2023-02-27T01:15:54.182Z,6.20
2023-02-27T01:18:21.863Z,4.70
2023-02-27T01:20:53.166Z,6.13
2023-02-27T01:23:20.929Z,4.70
2023-02-27T01:25:51.792Z,5.73
2023-02-27T01:28:19.597Z,5.80
2023-02-27T01:30:47.350Z,5.77
2023-02-27T01:33:16.176Z,4.20
2023-02-27T01:35:44.131Z,6.10
2023-02-27T01:38:13.846Z,5.13
2023-02-27T01:40:44.091Z,5.57
2023-02-27T01:43:17.214Z,6.00
2023-02-27T01:45:47.832Z,7.70
2023-02-27T01:48:19.119Z,6.70
2023-02-27T01:50:51.730Z,7.23
2023-02-27T01:53:24.997Z,7.03
2023-02-27T01:55:56.157Z,9.27
2023-02-27T01:58:26.990Z,5.10
2023-02-27T02:00:56.133Z,7.90
2023-02-27T02:03:30.718Z,9.07
2023-02-27T02:06:00.707Z,7.37
2023-02-27T02:08:33.899Z,7.40
2023-02-27T02:11:03.314Z,5.93
2023-02-27T02:13:33.368Z,7.57
2023-02-27T02:16:14.828Z,5.17
2023-02-27T02:18:50.245Z,4.10
2023-02-27T02:21:51.647Z,3.97
2023-02-27T02:24:52.816Z,7.20
2023-02-27T02:27:34.425Z,6.67
2023-02-27T02:30:32.420Z,6.23
2023-02-27T02:33:33.989Z,5.37
2023-02-27T02:37:07.128Z,6.00
2023-02-27T02:40:06.308Z,4.87
2023-02-27T02:42:39.971Z,4.17
2023-02-27T02:45:18.029Z,5.63
2023-02-27T02:48:00.922Z,4.87
2023-02-27T02:50:36.150Z,6.67
2023-02-27T02:53:09.650Z,3.53
2023-02-27T02:55:44.849Z,5.80
2023-02-27T02:58:18.628Z,6.73
2023-02-27T03:01:00.126Z,4.67
2023-02-27T03:03:32.724Z,4.70
2023-02-27T03:06:04.925Z,5.53
2023-02-27T03:08:38.298Z,3.83
2023-02-27T03:11:08.253Z,5.67
2023-02-27T03:13:41.969Z,5.60
2023-02-27T03:16:16.848Z,4.63
2023-02-27T03:18:51.397Z,5.07
2023-02-27T03:21:26.284Z,3.77
2023-02-27T03:23:57.224Z,5.30
2023-02-27T03:26:33.840Z,6.40
2023-02-27T03:29:06.073Z,5.43
2023-02-27T03:31:39.158Z,5.20
2023-02-27T03:34:16.216Z,3.00
2023-02-27T03:36:50.494Z,4.57
2023-02-27T03:39:26.318Z,6.73
2023-02-27T03:42:03.500Z,6.20
2023-02-27T03:45:08.907Z,4.87
2023-02-27T03:47:37.507Z,4.03
2023-02-27T03:50:06.409Z,4.43
2023-02-27T03:52:34.537Z,3.63
2023-02-27T03:55:08.234Z,4.80
2023-02-27T03:57:38.562Z,5.83
2023-02-27T04:00:13.399Z,4.80
2023-02-27T04:02:50.494Z,5.73
2023-02-27T04:05:22.731Z,6.03
2023-02-27T04:08:25.804Z,4.37
2023-02-27T04:11:18.090Z,4.47
2023-02-27T04:14:01.458Z,5.73
2023-02-27T04:16:57.005Z,6.00
2023-02-27T04:19:54.166Z,4.20
2023-02-27T04:22:33.892Z,2.87
2023-02-27T04:25:17.997Z,3.50
2023-02-27T04:27:53.734Z,5.33
2023-02-27T04:30:29.015Z,9.30
2023-02-27T04:33:04.662Z,3.50
2023-02-27T04:35:35.853Z,5.77
2023-02-27T04:38:07.206Z,4.17
2023-02-27T04:40:39.776Z,4.00
2023-02-27T04:43:10.652Z,3.97
2023-02-27T04:45:42.679Z,6.53
2023-02-27T04:48:17.741Z,3.70
2023-02-27T04:50:50.629Z,3.47
2023-02-27T04:53:24.033Z,3.30
2023-02-27T04:55:55.891Z,4.03
2023-02-27T04:58:27.744Z,5.70
2023-02-27T05:01:01.992Z,3.63
2023-02-27T05:03:34.617Z,3.90
2023-02-27T05:06:04.102Z,5.03
2023-02-27T05:08:40.135Z,4.23
2023-02-27T05:11:12.472Z,5.63
2023-02-27T05:13:47.064Z,7.73
2023-02-27T05:16:22.040Z,6.40
2023-02-27T05:18:51.317Z,3.47
2023-02-27T05:21:27.833Z,3.67
2023-02-27T05:24:11.953Z,9.70
2023-02-27T05:26:55.484Z,3.20
2023-02-27T05:29:34.295Z,4.20
2023-02-27T05:32:16.326Z,3.70
2023-02-27T05:34:51.976Z,6.83
2023-02-27T05:37:24.308Z,4.73
2023-02-27T05:39:54.063Z,5.93
2023-02-27T05:42:28.640Z,3.60
2023-02-27T05:45:00.397Z,3.23
2023-02-27T05:47:33.446Z,5.47
2023-02-27T05:50:06.697Z,5.67
2023-02-27T05:52:37.614Z,6.70
2023-02-27T05:55:13.598Z,7.30
2023-02-27T05:57:46.742Z,9.70
2023-02-27T06:00:18.828Z,9.07
2023-02-27T06:02:48.467Z,6.80
2023-02-27T06:05:18.830Z,7.43
2023-02-27T06:07:46.735Z,6.97
2023-02-27T06:10:17.785Z,8.53
2023-02-27T06:12:45.793Z,8.83
2023-02-27T06:15:14.657Z,5.23
2023-02-27T06:17:42.421Z,4.43
2023-02-27T06:20:13.980Z,5.67
2023-02-27T06:22:42.023Z,4.03
2023-02-27T06:25:11.107Z,3.07
2023-02-27T06:27:38.800Z,3.77
2023-02-27T06:30:08.808Z,4.63
2023-02-27T06:32:36.678Z,6.87
2023-02-27T06:35:05.981Z,5.10
2023-02-27T06:37:35.170Z,3.83
2023-02-27T06:40:06.010Z,3.60
2023-02-27T06:42:34.071Z,3.60
2023-02-27T06:45:03.677Z,6.43
2023-02-27T06:47:32.265Z,3.20
2023-02-27T06:50:00.850Z,5.20
2023-02-27T06:52:28.890Z,2.93
2023-02-27T06:54:58.850Z,4.93
2023-02-27T06:57:27.282Z,5.23
2023-02-27T06:59:54.967Z,4.17
2023-02-27T07:02:23.676Z,7.27
2023-02-27T07:04:51.350Z,4.33
2023-02-27T07:07:33.977Z,2.73
2023-02-27T07:10:07.769Z,3.30
2023-02-27T07:12:35.879Z,4.23
2023-02-27T07:15:04.779Z,3.57
2023-02-27T07:17:32.718Z,3.30
2023-02-27T07:20:00.679Z,4.13
2023-02-27T07:22:29.289Z,2.37
2023-02-27T07:24:57.201Z,3.90
2023-02-27T07:27:26.382Z,6.33
2023-02-27T07:29:54.122Z,3.00
2023-02-27T07:32:22.238Z,4.33
2023-02-27T07:34:52.940Z,4.40
2023-02-27T07:37:20.760Z,3.87
2023-02-27T07:39:48.492Z,4.13
2023-02-27T07:42:16.669Z,4.13
2023-02-27T07:44:45.810Z,5.60
2023-02-27T07:47:14.394Z,4.20
2023-02-27T07:49:42.338Z,4.10
2023-02-27T07:52:11.240Z,5.37
2023-02-27T07:54:39.094Z,3.20
2023-02-27T07:57:07.983Z,5.47
2023-02-27T07:59:35.754Z,4.40
2023-02-27T08:02:05.485Z,5.47
2023-02-27T08:04:34.106Z,6.80
2023-02-27T08:07:03.158Z,5.87
2023-02-27T08:09:31.595Z,7.73
2023-02-27T08:11:59.799Z,5.80
2023-02-27T08:14:27.689Z,5.20
2023-02-27T08:16:55.549Z,6.20
2023-02-27T08:19:24.954Z,3.40
2023-02-27T08:21:52.783Z,6.10
2023-02-27T08:24:20.767Z,3.83
2023-02-27T08:26:48.857Z,4.87
2023-02-27T08:29:17.531Z,3.60
2023-02-27T08:31:46.834Z,2.63
2023-02-27T08:34:17.352Z,2.90
2023-02-27T08:36:46.542Z,2.70
2023-02-27T08:39:16.348Z,4.37
2023-02-27T08:41:44.360Z,3.10
2023-02-27T08:44:13.298Z,3.33
2023-02-27T08:46:41.391Z,4.47
2023-02-27T08:49:09.711Z,5.80
2023-02-27T08:51:38.444Z,2.73
2023-02-27T08:54:07.949Z,3.33
2023-02-27T08:56:35.732Z,4.67
2023-02-27T08:59:03.609Z,3.93
2023-02-27T09:01:34.600Z,4.80
2023-02-27T09:04:03.253Z,2.73
2023-02-27T09:06:32.389Z,5.10
2023-02-27T09:09:00.900Z,3.23
2023-02-27T09:11:30.835Z,4.57
2023-02-27T09:13:58.924Z,1.30
2023-02-27T09:16:27.559Z,4.83
2023-02-27T09:18:55.769Z,2.77
2023-02-27T09:21:24.838Z,5.17
2023-02-27T09:23:53.025Z,2.83
2023-02-27T09:26:22.910Z,3.40
2023-02-27T09:28:56.045Z,3.33
2023-02-27T09:31:23.933Z,2.90
2023-02-27T09:33:52.069Z,2.73
2023-02-27T09:36:19.793Z,3.97
2023-02-27T09:38:47.510Z,3.57
2023-02-27T09:41:43.133Z,2.13
2023-02-27T09:44:36.340Z,2.40
2023-02-27T09:47:17.012Z,3.33
2023-02-27T09:49:54.981Z,3.67
2023-02-27T09:52:22.820Z,5.80
2023-02-27T09:54:50.850Z,4.20
2023-02-27T09:57:25.911Z,4.70
2023-02-27T10:00:01.608Z,3.57
2023-02-27T10:02:45.400Z,2.93
2023-02-27T10:05:24.441Z,3.60
2023-02-27T10:08:03.437Z,2.23
2023-02-27T10:10:37.054Z,3.10
2023-02-27T10:13:21.600Z,2.70
2023-02-27T10:15:54.691Z,3.10
2023-02-27T10:18:29.144Z,2.07
2023-02-27T10:21:01.507Z,5.30
2023-02-27T10:23:36.715Z,2.87
2023-02-27T10:26:05.531Z,1.87
2023-02-27T10:28:34.269Z,3.20
2023-02-27T10:31:03.744Z,8.13
2023-02-27T10:33:36.084Z,8.43
2023-02-27T10:36:15.807Z,4.63
2023-02-27T10:38:51.997Z,3.87
2023-02-27T10:41:23.031Z,2.30
2023-02-27T10:43:53.044Z,3.67
2023-02-27T10:46:27.383Z,2.00
2023-02-27T10:48:55.473Z,2.60
2023-02-27T10:51:26.541Z,3.23
2023-02-27T10:54:18.286Z,5.97
2023-02-27T10:56:48.909Z,2.50
2023-02-27T10:59:22.752Z,1.80
2023-02-27T11:01:54.959Z,3.67
2023-02-27T11:04:30.402Z,2.03
2023-02-27T11:07:00.001Z,3.07
2023-02-27T11:09:29.566Z,3.50
2023-02-27T11:12:11.864Z,2.67
2023-02-27T11:14:50.739Z,1.80
2023-02-27T11:17:26.557Z,1.93
2023-02-27T11:19:54.358Z,3.30
2023-02-27T11:22:24.764Z,3.17
2023-02-27T11:24:54.772Z,4.77
2023-02-27T11:27:26.586Z,2.23
2023-02-27T11:30:00.605Z,3.00
2023-02-27T11:32:37.186Z,2.13
2023-02-27T11:35:05.659Z,1.93
2023-02-27T11:37:35.924Z,2.90
2023-02-27T11:40:19.329Z,3.80
2023-02-27T11:42:50.843Z,2.73
2023-02-27T11:46:04.667Z,2.53
2023-02-27T11:48:24.826Z,2.70
2023-02-27T11:51:09.888Z,2.40
2023-02-27T11:53:53.736Z,3.40
2023-02-27T11:56:27.644Z,2.15
2023-02-27T11:59:04.034Z,3.17
2023-02-27T12:01:38.175Z,3.80
2023-02-27T12:04:16.713Z,1.83
2023-02-27T12:06:52.162Z,2.80
2023-02-27T12:09:39.677Z,3.60
2023-02-27T12:12:18.205Z,4.20
2023-02-27T12:14:51.739Z,2.50
2023-02-27T12:17:27.283Z,1.75
2023-02-27T12:20:23.367Z,2.33
2023-02-27T12:22:54.742Z,2.78
2023-02-27T12:25:33.262Z,4.07
2023-02-27T12:28:04.712Z,2.08
2023-02-27T12:30:39.895Z,1.38
2023-02-27T12:33:19.305Z,2.47
2023-02-27T12:35:56.557Z,3.43
2023-02-27T12:38:25.188Z,1.45
2023-02-27T12:41:17.319Z,1.90
2023-02-27T12:43:50.207Z,3.63
2023-02-27T12:46:39.606Z,1.58
2023-02-27T12:49:26.214Z,6.60
2023-02-27T12:52:05.219Z,3.03
2023-02-27T12:54:47.580Z,4.45
2023-02-27T12:57:41.981Z,4.40
2023-02-27T13:00:16.516Z,2.10
2023-02-27T13:02:54.388Z,4.25
2023-02-27T13:05:35.448Z,4.90
2023-02-27T13:08:15.549Z,2.33
2023-02-27T13:10:49.002Z,2.17
2023-02-27T13:13:24.167Z,1.10
2023-02-27T13:15:56.548Z,2.45
2023-02-27T13:18:33.570Z,1.10
2023-02-27T13:21:09.580Z,1.35
2023-02-27T13:23:50.506Z,1.58
2023-02-27T13:26:23.745Z,2.35
2023-02-27T13:28:53.050Z,3.53
2023-02-27T13:31:31.180Z,2.43
2023-02-27T13:34:08.955Z,1.30
2023-02-27T13:36:40.878Z,1.88
2023-02-27T13:40:01.469Z,3.42
2023-02-27T13:42:57.017Z,2.75
2023-02-27T13:45:48.466Z,1.95
2023-02-27T13:48:45.124Z,1.00
2023-02-27T13:51:48.921Z,4.25
2023-02-27T13:54:22.643Z,2.20
2023-02-27T13:56:52.137Z,1.60
2023-02-27T13:59:26.350Z,2.25
2023-02-27T14:01:57.807Z,2.78
2023-02-27T14:04:30.074Z,3.28
2023-02-27T14:07:01.095Z,2.05
2023-02-27T14:09:37.348Z,2.85
2023-02-27T14:12:07.647Z,5.07
2023-02-27T14:14:41.711Z,3.27
2023-02-27T14:17:12.345Z,3.83
2023-02-27T14:19:56.770Z,2.70
2023-02-27T14:22:37.566Z,2.83
2023-02-27T14:25:17.023Z,1.27
2023-02-27T14:27:56.988Z,1.35
2023-02-27T14:30:33.586Z,1.80
2023-02-27T14:33:08.120Z,3.83
2023-02-27T14:35:37.273Z,2.13
2023-02-27T14:38:11.384Z,1.92
2023-02-27T14:40:45.012Z,3.05
2023-02-27T14:43:24.438Z,1.48
2023-02-27T14:45:54.750Z,1.75
2023-02-27T14:48:28.625Z,1.90
2023-02-27T14:50:57.978Z,1.23
2023-02-27T14:53:28.138Z,2.33
2023-02-27T14:55:57.676Z,2.63
2023-02-27T14:58:26.221Z,3.47
2023-02-27T15:01:06.069Z,1.65
2023-02-27T15:03:39.899Z,2.83
2023-02-27T15:06:18.233Z,2.17
2023-02-27T15:08:49.903Z,2.40
2023-02-27T15:11:19.713Z,1.97
2023-02-27T15:13:49.581Z,1.38
2023-02-27T15:16:31.751Z,1.47
2023-02-27T15:19:02.443Z,2.27
2023-02-27T15:21:35.040Z,3.57
2023-02-27T15:24:04.684Z,2.70
2023-02-27T15:26:39.835Z,2.77
2023-02-27T15:29:09.644Z,2.07
2023-02-27T15:31:39.201Z,2.70
2023-02-27T15:34:15.982Z,1.63
2023-02-27T15:36:48.322Z,1.87
2023-02-27T15:39:19.283Z,1.92
2023-02-27T15:41:49.819Z,1.07
2023-02-27T15:44:20.406Z,2.17
2023-02-27T15:46:51.018Z,1.20
2023-02-27T15:49:21.073Z,2.60
2023-02-27T15:51:55.125Z,4.40
2023-02-27T15:54:23.902Z,2.30
2023-02-27T15:56:54.250Z,0.80
2023-02-27T15:59:22.231Z,2.73
2023-02-27T16:01:51.467Z,2.33
2023-02-27T16:04:25.160Z,1.30
2023-02-27T16:07:00.451Z,2.10
2023-02-27T16:09:31.534Z,2.00
2023-02-27T16:12:22.988Z,1.30
2023-02-27T16:14:53.729Z,2.43
2023-02-27T16:17:27.079Z,2.10
2023-02-27T16:19:56.445Z,3.03
2023-02-27T16:22:25.251Z,1.57
2023-02-27T16:24:54.444Z,3.83
2023-02-27T16:27:26.004Z,3.17
2023-02-27T16:29:55.955Z,2.50
2023-02-27T16:32:28.269Z,2.53
2023-02-27T16:35:05.828Z,1.47
2023-02-27T16:37:38.003Z,2.47
2023-02-27T16:40:15.165Z,1.43
2023-02-27T16:42:43.293Z,4.30
2023-02-27T16:45:16.093Z,3.40
2023-02-27T16:47:45.340Z,1.30
2023-02-27T16:50:19.398Z,1.43
2023-02-27T16:52:47.331Z,0.97
2023-02-27T16:55:15.888Z,1.53
2023-02-27T16:57:43.761Z,2.00
2023-02-27T17:00:15.118Z,1.77
2023-02-27T17:02:43.144Z,1.17
2023-02-27T17:05:12.475Z,2.73
2023-02-27T17:07:40.492Z,1.80
2023-02-27T17:10:08.966Z,3.23
2023-02-27T17:12:36.797Z,1.47
2023-02-27T17:15:05.441Z,2.50
2023-02-27T17:17:33.125Z,1.33
2023-02-27T17:20:00.759Z,2.07
2023-02-27T17:22:29.853Z,1.77
2023-02-27T17:24:57.539Z,2.10
2023-02-27T17:27:25.433Z,1.33
2023-02-27T17:29:53.833Z,1.33
2023-02-27T17:32:21.845Z,2.60
2023-02-27T17:34:53.875Z,3.00
2023-02-27T17:37:22.748Z,3.83
2023-02-27T17:39:52.126Z,1.57
2023-02-27T17:42:20.362Z,1.60
2023-02-27T17:44:48.361Z,3.60
2023-02-27T17:47:16.652Z,1.40
2023-02-27T17:49:44.451Z,1.40
2023-02-27T17:52:12.595Z,1.77
2023-02-27T17:54:40.632Z,2.47
2023-02-27T17:57:12.025Z,2.10
2023-02-27T17:59:40.946Z,1.53
2023-02-27T18:02:08.678Z,2.87
2023-02-27T18:04:36.684Z,3.43
2023-02-27T18:07:04.389Z,3.23
2023-02-27T18:09:32.426Z,3.23
2023-02-27T18:12:00.490Z,4.17
2023-02-27T18:14:29.592Z,3.23
2023-02-27T18:16:58.297Z,5.57
2023-02-27T18:19:26.924Z,2.60
2023-02-27T18:21:54.802Z,5.57
2023-02-27T18:24:22.716Z,3.30
2023-02-27T18:26:50.555Z,2.53
2023-02-27T18:29:19.103Z,3.17
2023-02-27T18:31:50.149Z,2.87
2023-02-27T18:34:18.131Z,4.03
2023-02-27T18:36:46.158Z,4.10
2023-02-27T18:39:15.246Z,1.97
2023-02-27T18:41:42.943Z,2.00
2023-02-27T18:44:11.213Z,2.00
2023-02-27T18:46:40.179Z,2.17
2023-02-27T18:49:09.788Z,1.37
2023-02-27T18:51:37.670Z,3.10
2023-02-27T18:54:06.882Z,2.47
2023-02-27T18:56:34.795Z,2.07
2023-02-27T18:59:05.110Z,2.30
2023-02-27T19:01:35.886Z,3.23
2023-02-27T19:04:06.280Z,4.77
2023-02-27T19:06:39.284Z,2.83
2023-02-27T19:09:07.921Z,3.53
2023-02-27T19:11:47.533Z,3.43
2023-02-27T19:14:17.235Z,1.87
